Time;durP1;ratioP1;P1;durP2;ratioP2;P2;SDS_P1;SDS_P2;PMS_P1;PMS_P2;Temp;Humidity;BMP_temperature;BMP_pressure;BME280_temperature;BME280_humidity;BME280_pressure;Samples;Min_cycle;Max_cycle;Signal;HPM_P1;HPM_P2
2023/08/05 00:01:15;;;;;;;9.32;3.53;;;14.20;99.90;;;;;;5094431;27;20107;-84
2023/08/05 00:03:44;;;;;;;4.72;3.45;;;14.20;99.90;;;;;;5089605;27;20066;-84
2023/08/05 00:06:10;;;;;;;6.82;4.13;;;14.20;99.90;;;;;;5079219;27;20066;-83
2023/08/05 00:08:36;;;;;;;6.10;4.15;;;14.20;99.90;;;;;;5085374;27;20133;-83
2023/08/05 00:11:03;;;;;;;5.88;4.35;;;14.20;99.90;;;;;;5100207;27;20087;-84
2023/08/05 00:13:34;;;;;;;8.38;4.55;;;14.20;99.90;;;;;;5107731;27;20038;-84
2023/08/05 00:16:00;;;;;;;7.03;3.65;;;14.20;99.90;;;;;;5085302;27;20043;-84
2023/08/05 00:18:26;;;;;;;7.25;4.60;;;14.20;99.90;;;;;;5098717;27;20190;-84
2023/08/05 00:20:57;;;;;;;9.32;4.85;;;14.20;99.90;;;;;;5103081;27;20066;-84
2023/08/05 00:23:23;;;;;;;6.10;3.90;;;14.20;99.90;;;;;;5081606;27;20324;-84
2023/08/05 00:25:48;;;;;;;8.50;3.70;;;14.20;99.90;;;;;;5113767;27;20399;-84
2023/08/05 00:28:14;;;;;;;6.75;4.10;;;14.20;99.90;;;;;;5094795;27;20186;-83
2023/08/05 00:30:40;;;;;;;6.32;4.28;;;14.20;99.90;;;;;;5107899;27;20141;-84
2023/08/05 00:33:05;;;;;;;6.35;4.20;;;14.20;99.90;;;;;;5086897;27;20451;-84
2023/08/05 00:35:31;;;;;;;6.25;3.75;;;14.20;99.90;;;;;;5085958;27;20053;-84
2023/08/05 00:37:57;;;;;;;7.07;3.65;;;14.20;99.90;;;;;;5084810;27;20046;-84
2023/08/05 00:40:23;;;;;;;8.88;4.07;;;14.10;99.90;;;;;;5093669;27;20046;-84
2023/08/05 00:42:53;;;;;;;8.00;4.35;;;14.10;99.90;;;;;;5112899;27;20342;-84
2023/08/05 00:45:20;;;;;;;6.55;4.10;;;14.10;99.90;;;;;;5121373;27;20059;-84
2023/08/05 00:47:45;;;;;;;6.32;3.78;;;14.10;99.90;;;;;;5098308;27;20063;-84
2023/08/05 00:50:16;;;;;;;5.63;3.60;;;14.10;99.90;;;;;;5105557;27;20393;-84
2023/08/05 00:52:43;;;;;;;7.22;3.40;;;14.10;99.90;;;;;;5100821;27;20177;-84
2023/08/05 00:55:09;;;;;;;5.13;3.33;;;14.10;99.90;;;;;;5080823;27;20043;-83
2023/08/05 00:57:35;;;;;;;6.38;3.25;;;14.10;99.90;;;;;;5089846;27;20103;-84
2023/08/05 01:00:01;;;;;;;5.00;3.22;;;14.10;99.90;;;;;;5111463;27;20031;-84
2023/08/05 01:02:27;;;;;;;6.45;3.60;;;14.10;99.90;;;;;;5108150;27;20130;-84
2023/08/05 01:04:52;;;;;;;4.68;3.10;;;14.10;99.90;;;;;;5088979;27;20504;-84
2023/08/05 01:07:20;;;;;;;6.07;3.30;;;14.10;99.90;;;;;;5085267;27;20046;-84
2023/08/05 01:09:46;;;;;;;5.40;3.10;;;14.10;99.90;;;;;;5095080;27;20130;-84
2023/08/05 01:12:11;;;;;;;5.25;2.78;;;14.00;99.90;;;;;;5089665;27;20435;-84
2023/08/05 01:14:37;;;;;;;4.90;3.17;;;14.00;99.90;;;;;;5086410;27;20046;-84
2023/08/05 01:17:03;;;;;;;5.18;3.17;;;14.00;99.90;;;;;;5110316;27;20031;-84
2023/08/05 01:19:34;;;;;;;7.47;3.45;;;14.00;99.90;;;;;;5085370;27;20122;-84
2023/08/05 01:22:28;;;;;;;8.30;3.67;;;13.90;99.90;;;;;;5111267;27;20053;-84
2023/08/05 01:25:15;;;;;;;7.05;3.80;;;13.80;99.90;;;;;;5105822;27;20421;-84
2023/08/05 01:27:42;;;;;;;6.75;3.88;;;13.60;99.90;;;;;;5093528;27;20617;-84
2023/08/05 01:30:10;;;;;;;8.30;3.67;;;13.50;99.90;;;;;;5105374;27;20568;-84
2023/08/05 01:32:38;;;;;;;5.95;3.83;;;13.50;99.90;;;;;;5098903;27;20043;-84
2023/08/05 01:35:06;;;;;;;6.03;3.78;;;13.50;99.90;;;;;;5096700;27;20031;-83
2023/08/05 01:37:32;;;;;;;6.25;3.55;;;13.50;99.90;;;;;;5106721;27;20044;-83
2023/08/05 01:39:57;;;;;;;8.13;3.80;;;13.50;99.90;;;;;;5102359;27;20034;-83
2023/08/05 01:42:23;;;;;;;4.28;3.10;;;13.60;99.90;;;;;;5095076;27;20037;-84
2023/08/05 01:44:48;;;;;;;5.40;3.50;;;13.50;99.90;;;;;;5131505;27;20569;-83
2023/08/05 01:47:14;;;;;;;4.90;3.55;;;13.50;99.90;;;;;;5122152;27;20050;-84
2023/08/05 01:49:40;;;;;;;5.53;3.35;;;13.50;99.90;;;;;;5092681;27;20481;-84
2023/08/05 01:52:05;;;;;;;4.78;3.45;;;13.50;99.90;;;;;;5088735;27;20035;-83
2023/08/05 01:54:31;;;;;;;6.30;4.00;;;13.50;99.90;;;;;;5089593;27;20436;-84
2023/08/05 01:56:57;;;;;;;9.38;3.28;;;13.40;99.90;;;;;;5091371;27;20146;-84
2023/08/05 01:59:22;;;;;;;5.93;3.60;;;13.40;99.90;;;;;;5091235;27;20031;-84
2023/08/05 02:01:48;;;;;;;4.95;3.30;;;13.40;99.90;;;;;;5116199;27;20124;-83
2023/08/05 02:04:17;;;;;;;5.47;3.42;;;13.40;99.90;;;;;;5124381;27;20039;-84
2023/08/05 02:06:43;;;;;;;5.50;3.40;;;13.30;99.90;;;;;;5128793;27;20054;-83
2023/08/05 02:09:08;;;;;;;6.10;3.85;;;13.20;99.90;;;;;;5090089;27;20048;-84
2023/08/05 02:11:34;;;;;;;8.60;3.60;;;13.20;99.90;;;;;;5085593;27;20031;-84
2023/08/05 02:14:02;;;;;;;5.80;3.28;;;13.10;99.90;;;;;;5094819;27;20550;-84
2023/08/05 02:16:28;;;;;;;11.48;3.92;;;13.00;99.90;;;;;;5130537;27;20049;-84
2023/08/05 02:18:54;;;;;;;6.32;3.67;;;12.90;99.90;;;;;;5082558;27;20032;-84
2023/08/05 02:21:24;;;;;;;5.97;3.28;;;12.90;99.90;;;;;;5128783;27;20027;-84
2023/08/05 02:23:52;;;;;;;7.68;3.92;;;12.90;99.90;;;;;;5108959;27;20051;-84
2023/08/05 02:26:20;;;;;;;5.63;3.65;;;12.80;99.90;;;;;;5104538;27;20065;-84
2023/08/05 02:28:46;;;;;;;6.20;3.50;;;12.70;99.90;;;;;;5105136;27;20053;-84
2023/08/05 02:31:21;;;;;;;7.05;3.70;;;12.70;99.90;;;;;;5093180;27;20376;-83
2023/08/05 02:33:47;;;;;;;6.32;4.15;;;12.60;99.90;;;;;;5117269;27;20038;-84
2023/08/05 02:36:15;;;;;;;7.57;4.25;;;12.50;99.90;;;;;;5117663;27;20035;-83
2023/08/05 02:38:41;;;;;;;8.13;3.65;;;12.50;99.90;;;;;;5087766;27;20039;-84
2023/08/05 02:41:08;;;;;;;6.90;3.95;;;12.50;99.90;;;;;;5092013;27;20046;-84
2023/08/05 02:43:33;;;;;;;4.70;3.88;;;12.40;99.90;;;;;;5093260;27;20091;-83
2023/08/05 02:45:59;;;;;;;6.30;4.15;;;12.30;99.90;;;;;;5106349;27;20043;-83
2023/08/05 02:48:25;;;;;;;9.25;4.28;;;12.40;99.90;;;;;;5086345;27;20043;-84
2023/08/05 02:50:54;;;;;;;6.82;4.07;;;12.20;99.90;;;;;;5095245;27;20457;-84
2023/08/05 02:53:20;;;;;;;8.13;3.72;;;12.20;99.90;;;;;;5094259;27;20043;-84
2023/08/05 02:55:46;;;;;;;6.43;3.67;;;12.20;99.90;;;;;;5097517;27;20047;-84
2023/08/05 02:58:14;;;;;;;6.75;4.40;;;12.10;99.90;;;;;;5131700;27;20075;-84
2023/08/05 03:00:44;;;;;;;8.40;4.38;;;12.10;99.90;;;;;;5130691;27;20046;-84
2023/08/05 03:03:14;;;;;;;6.43;4.35;;;12.00;99.90;;;;;;5121289;27;20069;-84
2023/08/05 03:05:43;;;;;;;6.93;4.03;;;12.00;99.90;;;;;;5092072;27;20045;-84
2023/08/05 03:08:13;;;;;;;7.63;4.28;;;12.00;99.90;;;;;;5082170;27;20119;-84
2023/08/05 03:10:40;;;;;;;5.45;4.00;;;12.00;99.90;;;;;;5109048;27;20049;-85
2023/08/05 03:13:06;;;;;;;8.70;4.55;;;12.00;99.90;;;;;;5091954;27;20066;-83
2023/08/05 03:15:31;;;;;;;5.88;3.78;;;11.90;99.90;;;;;;5111342;27;20081;-84
2023/08/05 03:17:57;;;;;;;4.40;3.70;;;11.90;99.90;;;;;;5087921;27;20032;-83
2023/08/05 03:20:30;;;;;;;6.13;3.72;;;11.90;99.90;;;;;;5125229;27;20173;-84
2023/08/05 03:22:56;;;;;;;6.93;4.28;;;11.90;99.90;;;;;;5099897;27;20031;-84
2023/08/05 03:25:24;;;;;;;9.38;4.10;;;11.90;99.90;;;;;;5126354;27;20123;-83
2023/08/05 03:27:51;;;;;;;6.55;4.28;;;11.90;99.90;;;;;;5099193;27;20031;-84
2023/08/05 03:30:17;;;;;;;7.72;3.72;;;12.00;99.90;;;;;;5088992;27;20046;-84
2023/08/05 03:32:45;;;;;;;5.70;4.07;;;11.90;99.90;;;;;;5089074;27;20285;-84
2023/08/05 03:35:11;;;;;;;7.20;3.85;;;11.90;99.90;;;;;;5104238;27;20031;-83
2023/08/05 03:37:37;;;;;;;6.10;3.63;;;12.00;99.90;;;;;;5097852;27;20500;-83
2023/08/05 03:40:03;;;;;;;5.60;3.53;;;12.00;99.90;;;;;;5096159;27;20069;-83
2023/08/05 03:42:29;;;;;;;6.43;3.67;;;12.00;99.90;;;;;;5086556;27;20034;-83
2023/08/05 03:44:55;;;;;;;5.75;3.55;;;12.00;99.90;;;;;;5090702;27;20413;-83
2023/08/05 03:47:24;;;;;;;7.05;4.20;;;12.10;99.90;;;;;;5102371;27;20039;-83
2023/08/05 03:49:49;;;;;;;7.13;3.85;;;12.10;99.90;;;;;;5099418;27;20035;-84
2023/08/05 03:52:15;;;;;;;7.63;3.75;;;12.30;99.90;;;;;;5111218;27;20058;-83
2023/08/05 03:54:41;;;;;;;5.45;3.63;;;12.30;99.90;;;;;;5106973;27;20038;-83
2023/08/05 03:57:09;;;;;;;7.13;3.85;;;12.40;99.90;;;;;;5113384;27;20041;-83
2023/08/05 03:59:36;;;;;;;5.68;3.65;;;12.50;99.90;;;;;;5088677;27;20217;-83
2023/08/05 04:02:02;;;;;;;6.90;3.80;;;12.50;99.90;;;;;;5100474;27;20043;-83
2023/08/05 04:04:31;;;;;;;6.13;3.50;;;12.60;99.90;;;;;;5092423;27;20075;-83
2023/08/05 04:06:56;;;;;;;5.07;3.25;;;12.60;99.90;;;;;;5108860;27;20046;-83
2023/08/05 04:09:24;;;;;;;6.93;3.55;;;12.70;99.90;;;;;;5102344;27;20401;-83
2023/08/05 04:11:50;;;;;;;7.63;3.70;;;12.70;99.90;;;;;;5102998;27;20054;-84
2023/08/05 04:14:19;;;;;;;6.72;3.75;;;12.70;99.90;;;;;;5112595;27;20043;-83
2023/08/05 04:16:51;;;;;;;6.03;3.75;;;12.70;99.90;;;;;;5110659;27;20508;-83
2023/08/05 04:19:18;;;;;;;6.68;3.88;;;12.80;99.90;;;;;;5086056;27;20427;-83
2023/08/05 04:21:47;;;;;;;7.28;4.22;;;12.80;99.90;;;;;;5108959;27;20039;-83
2023/08/05 04:24:19;;;;;;;7.50;3.40;;;12.90;99.90;;;;;;5095043;27;20165;-83
2023/08/05 04:26:45;;;;;;;6.25;3.85;;;12.90;99.90;;;;;;5089797;27;20095;-83
2023/08/05 04:29:11;;;;;;;7.47;3.88;;;12.90;99.90;;;;;;5110167;27;20449;-83
2023/08/05 04:31:38;;;;;;;7.43;4.18;;;13.00;99.90;;;;;;5094070;27;20074;-83
2023/08/05 04:34:04;;;;;;;8.88;4.82;;;13.10;99.90;;;;;;5108087;27;20085;-83
2023/08/05 04:36:30;;;;;;;6.43;3.92;;;13.10;99.90;;;;;;5093250;27;20965;-83
2023/08/05 04:38:58;;;;;;;7.82;3.78;;;13.20;99.90;;;;;;5106301;27;20056;-83
2023/08/05 04:41:23;;;;;;;6.47;4.13;;;13.20;99.90;;;;;;5120852;27;20058;-83
2023/08/05 04:43:49;;;;;;;5.13;4.00;;;13.30;99.90;;;;;;5086369;28;20078;-83
2023/08/05 04:46:16;;;;;;;11.65;4.75;;;13.30;99.90;;;;;;5082300;27;20068;-83
2023/08/05 04:48:41;;;;;;;4.85;3.42;;;13.40;99.90;;;;;;5085594;27;20038;-83
2023/08/05 04:51:07;;;;;;;7.72;4.38;;;13.40;99.90;;;;;;5091948;28;20450;-83
2023/08/05 04:53:33;;;;;;;5.68;3.80;;;13.50;99.90;;;;;;5087354;27;20351;-83
2023/08/05 04:55:58;;;;;;;10.68;4.18;;;13.60;99.90;;;;;;5081629;28;20054;-83
2023/08/05 04:58:24;;;;;;;8.90;4.55;;;13.70;99.90;;;;;;5103526;27;20529;-83
2023/08/05 05:00:54;;;;;;;9.75;4.28;;;13.70;99.90;;;;;;5099930;28;20178;-83
2023/08/05 05:03:20;;;;;;;7.38;4.07;;;13.80;99.90;;;;;;5077528;28;20031;-83
2023/08/05 05:05:46;;;;;;;7.63;4.03;;;13.80;99.90;;;;;;5079113;28;20516;-83
2023/08/05 05:08:11;;;;;;;9.07;4.30;;;13.90;99.90;;;;;;5084794;28;20071;-83
2023/08/05 05:10:37;;;;;;;9.57;4.10;;;14.00;99.90;;;;;;5081140;28;20447;-83
2023/08/05 05:13:03;;;;;;;7.18;4.32;;;14.10;99.90;;;;;;5086931;28;20074;-83
2023/08/05 05:15:28;;;;;;;7.10;4.28;;;14.20;99.90;;;;;;5093845;28;20080;-83
2023/08/05 05:17:57;;;;;;;8.50;4.13;;;14.30;99.90;;;;;;5092799;28;20089;-83
2023/08/05 05:20:22;;;;;;;8.55;4.38;;;14.40;99.90;;;;;;5102722;28;20474;-83
2023/08/05 05:22:48;;;;;;;7.43;3.88;;;14.50;99.90;;;;;;5082605;28;20061;-83
2023/08/05 05:25:13;;;;;;;5.35;3.65;;;14.60;99.90;;;;;;5103035;28;20035;-83
2023/08/05 05:27:39;;;;;;;6.53;3.63;;;14.60;99.90;;;;;;5103669;28;20312;-83
2023/08/05 05:30:06;;;;;;;7.15;3.47;;;14.70;99.90;;;;;;5080896;28;20046;-83
2023/08/05 05:32:31;;;;;;;9.27;3.75;;;14.60;99.90;;;;;;5097855;28;20499;-83
2023/08/05 05:34:57;;;;;;;6.43;3.83;;;14.60;99.90;;;;;;5084375;28;20035;-83
2023/08/05 05:37:22;;;;;;;6.50;3.72;;;14.60;99.90;;;;;;5103448;28;20050;-83
2023/08/05 05:39:48;;;;;;;8.13;3.60;;;14.60;99.90;;;;;;5083917;28;20043;-83
2023/08/05 05:42:14;;;;;;;4.70;3.33;;;14.80;99.90;;;;;;5103473;28;20028;-83
2023/08/05 05:44:40;;;;;;;5.80;3.75;;;14.80;99.90;;;;;;5116323;27;20039;-83
2023/08/05 05:47:12;;;;;;;5.38;2.83;;;15.00;99.90;;;;;;5091687;27;20054;-83
2023/08/05 05:49:37;;;;;;;6.35;3.35;;;15.00;99.90;;;;;;5097037;27;20042;-83
2023/08/05 05:52:04;;;;;;;4.28;3.30;;;14.90;99.90;;;;;;5129315;27;20393;-83
2023/08/05 05:54:29;;;;;;;6.60;2.90;;;14.90;99.90;;;;;;5116357;27;20121;-83
2023/08/05 05:56:55;;;;;;;4.63;3.28;;;15.00;99.90;;;;;;5102654;27;20131;-83
2023/08/05 05:59:21;;;;;;;6.88;3.30;;;15.00;99.90;;;;;;5088124;27;20568;-83
2023/08/05 06:01:47;;;;;;;5.45;3.20;;;15.10;99.90;;;;;;5083838;28;20481;-83
2023/08/05 06:04:12;;;;;;;6.88;3.50;;;15.30;99.90;;;;;;5085973;27;20485;-83
2023/08/05 06:06:38;;;;;;;7.95;3.30;;;15.40;99.90;;;;;;5089477;27;20042;-83
2023/08/05 06:09:04;;;;;;;5.20;3.05;;;15.50;99.90;;;;;;5086793;27;20487;-83
2023/08/05 06:11:32;;;;;;;4.47;3.10;;;15.50;99.90;;;;;;5088956;27;20047;-83
2023/08/05 06:13:58;;;;;;;7.22;2.90;;;15.50;99.90;;;;;;5114170;27;20122;-83
2023/08/05 06:16:24;;;;;;;5.55;2.72;;;15.60;99.90;;;;;;5095572;27;20438;-83
2023/08/05 06:18:49;;;;;;;4.53;2.80;;;15.70;99.90;;;;;;5090315;27;20187;-83
2023/08/05 06:21:22;;;;;;;6.05;3.08;;;15.90;99.90;;;;;;5128054;27;20042;-82
2023/08/05 06:23:47;;;;;;;4.10;2.40;;;16.00;99.90;;;;;;5112361;27;20035;-83
2023/08/05 06:26:13;;;;;;;3.97;2.53;;;16.00;99.90;;;;;;5094617;27;20061;-83
2023/08/05 06:28:44;;;;;;;5.72;3.00;;;16.00;99.90;;;;;;5111074;27;20127;-83
2023/08/05 06:31:10;;;;;;;4.78;2.67;;;16.00;99.90;;;;;;5093439;27;20039;-83
2023/08/05 06:33:35;;;;;;;6.60;2.60;;;15.90;99.90;;;;;;5111647;27;20433;-83
2023/08/05 06:36:01;;;;;;;3.78;2.35;;;16.00;99.90;;;;;;5094964;27;20065;-84
2023/08/05 06:38:27;;;;;;;4.32;2.60;;;16.00;99.90;;;;;;5094382;27;20440;-83
2023/08/05 06:40:52;;;;;;;3.03;2.17;;;15.90;99.90;;;;;;5097935;27;20023;-83
2023/08/05 06:43:18;;;;;;;6.25;2.50;;;15.90;99.90;;;;;;5099690;27;20042;-83
2023/08/05 06:45:47;;;;;;;5.35;2.45;;;16.10;99.90;;;;;;5109605;27;20929;-83
2023/08/05 06:48:13;;;;;;;3.67;2.45;;;16.40;99.90;;;;;;5101108;27;20043;-83
2023/08/05 06:50:39;;;;;;;5.28;2.40;;;16.80;99.90;;;;;;5111131;27;20043;-84
2023/08/05 06:53:04;;;;;;;3.10;2.30;;;17.00;99.90;;;;;;5083156;27;20481;-84
2023/08/05 06:55:30;;;;;;;2.97;2.17;;;17.20;99.90;;;;;;5119025;27;20034;-83
2023/08/05 06:57:56;;;;;;;3.08;1.98;;;17.30;99.90;;;;;;5112902;27;20424;-83
2023/08/05 07:00:21;;;;;;;5.40;2.55;;;17.50;99.90;;;;;;5115093;27;20039;-83
2023/08/05 07:02:50;;;;;;;4.82;2.20;;;17.50;99.90;;;;;;5087797;27;20075;-83
2023/08/05 07:05:15;;;;;;;3.60;2.10;;;17.50;99.90;;;;;;5093860;27;20502;-83
2023/08/05 07:07:41;;;;;;;3.85;1.95;;;17.60;99.90;;;;;;5086902;27;20047;-83
2023/08/05 07:10:11;;;;;;;2.38;1.70;;;18.00;99.90;;;;;;5089323;27;20138;-83
2023/08/05 07:12:37;;;;;;;5.35;2.38;;;18.00;99.90;;;;;;5090788;27;20058;-83
2023/08/05 07:15:05;;;;;;;3.83;2.30;;;18.00;99.90;;;;;;5102702;27;20472;-83
2023/08/05 07:17:31;;;;;;;2.47;2.00;;;18.10;99.90;;;;;;5099826;27;20039;-83
2023/08/05 07:19:58;;;;;;;3.70;2.28;;;17.90;99.90;;;;;;5132986;27;20039;-83
2023/08/05 07:22:23;;;;;;;3.75;1.90;;;17.80;99.90;;;;;;5106080;27;20031;-84
2023/08/05 07:24:52;;;;;;;4.38;1.83;;;17.80;99.90;;;;;;5086394;27;20039;-83
2023/08/05 07:27:18;;;;;;;2.83;1.98;;;17.80;99.90;;;;;;5100480;27;20377;-84
2023/08/05 07:29:43;;;;;;;3.50;1.80;;;17.80;99.90;;;;;;5108849;27;20083;-82
2023/08/05 07:32:09;;;;;;;2.53;1.88;;;17.80;99.90;;;;;;5106082;27;21264;-83
2023/08/05 07:34:35;;;;;;;5.95;1.90;;;17.90;99.90;;;;;;5096115;27;20401;-83
2023/08/05 07:37:00;;;;;;;2.80;1.90;;;18.20;99.90;;;;;;5103098;27;20039;-82
2023/08/05 07:39:48;;;;;;;3.35;2.20;;;18.40;99.90;;;;;;5106051;27;20417;-83
2023/08/05 07:42:19;;;;;;;5.97;2.42;;;18.50;99.90;;;;;;5101329;27;20043;-83
2023/08/05 07:44:46;;;;;;;4.90;1.75;;;18.60;99.90;;;;;;5092698;27;20430;-83
2023/08/05 07:47:12;;;;;;;3.22;2.10;;;18.60;99.90;;;;;;5116833;27;20129;-83
2023/08/05 07:49:38;;;;;;;4.20;2.00;;;18.90;99.90;;;;;;5093607;27;20087;-84
2023/08/05 07:52:06;;;;;;;4.38;2.10;;;18.70;99.90;;;;;;5082703;27;20537;-82
2023/08/05 07:54:32;;;;;;;5.13;2.00;;;18.70;99.90;;;;;;5115914;27;20038;-83
2023/08/05 07:56:58;;;;;;;5.43;1.90;;;18.90;99.90;;;;;;5104358;27;20520;-84
2023/08/05 07:59:25;;;;;;;3.97;2.13;;;19.10;99.90;;;;;;5088374;27;20070;-83
2023/08/05 08:01:55;;;;;;;5.38;1.88;;;19.10;99.90;;;;;;5093826;27;20380;-83
2023/08/05 08:04:21;;;;;;;4.18;2.72;;;19.20;99.90;;;;;;5084589;27;20027;-83
2023/08/05 08:06:47;;;;;;;3.78;1.90;;;19.20;99.90;;;;;;5109183;27;20456;-83
2023/08/05 08:09:13;;;;;;;4.93;2.10;;;19.30;99.90;;;;;;5088237;27;20047;-83
2023/08/05 08:11:40;;;;;;;3.92;2.00;;;19.30;99.90;;;;;;5109559;27;20549;-83
2023/08/05 08:14:05;;;;;;;3.58;2.03;;;19.20;99.90;;;;;;5116997;27;20091;-82
2023/08/05 08:16:32;;;;;;;2.72;1.80;;;19.10;99.90;;;;;;5087216;27;20481;-83
2023/08/05 08:18:57;;;;;;;5.20;2.15;;;19.10;99.90;;;;;;5096442;27;20526;-83
2023/08/05 08:21:23;;;;;;;4.18;2.00;;;19.20;99.90;;;;;;5088567;27;20115;-83
2023/08/05 08:23:48;;;;;;;4.25;1.90;;;19.30;99.90;;;;;;5089928;27;20101;-83
2023/08/05 08:26:16;;;;;;;3.50;2.13;;;19.60;99.90;;;;;;5126919;27;20162;-83
2023/08/05 08:28:41;;;;;;;8.48;2.00;;;19.50;99.90;;;;;;5109289;27;20453;-83
2023/08/05 08:31:07;;;;;;;4.18;1.80;;;19.60;99.90;;;;;;5091850;27;20884;-83
2023/08/05 08:33:33;;;;;;;3.25;2.10;;;19.00;99.90;;;;;;5102244;27;20185;-83
2023/08/05 08:35:58;;;;;;;2.95;1.98;;;19.00;99.90;;;;;;5106737;27;20504;-83
2023/08/05 08:38:25;;;;;;;2.78;1.85;;;19.30;99.90;;;;;;5099528;27;20067;-83
2023/08/05 08:40:56;;;;;;;2.28;1.70;;;19.50;99.90;;;;;;5088018;27;20114;-83
2023/08/05 08:43:22;;;;;;;4.80;2.00;;;19.70;99.90;;;;;;5127703;27;20050;-83
2023/08/05 08:45:55;;;;;;;4.60;2.00;;;19.60;99.90;;;;;;5094386;27;20837;-83
2023/08/05 08:48:30;;;;;;;3.63;1.85;;;19.80;99.90;;;;;;5109692;27;20337;-83
2023/08/05 08:50:59;;;;;;;2.90;2.05;;;19.80;99.90;;;;;;5089445;27;20070;-83
2023/08/05 08:53:26;;;;;;;4.78;2.13;;;19.70;99.90;;;;;;5108041;27;20118;-83
2023/08/05 08:55:52;;;;;;;4.50;1.85;;;20.20;99.90;;;;;;5097436;27;20060;-84
2023/08/05 08:58:18;;;;;;;3.08;1.75;;;20.40;99.90;;;;;;5086362;27;20035;-83
2023/08/05 09:00:45;;;;;;;3.38;2.08;;;20.80;99.90;;;;;;5106808;27;20099;-83
2023/08/05 09:03:12;;;;;;;3.30;2.05;;;21.00;99.90;;;;;;5110832;27;20027;-83
2023/08/05 09:05:44;;;;;;;2.28;1.70;;;21.00;99.90;;;;;;5116621;27;20030;-83
2023/08/05 09:08:10;;;;;;;2.35;1.70;;;21.00;99.90;;;;;;5074217;27;20031;-84
2023/08/05 09:10:37;;;;;;;3.92;1.60;;;20.70;99.90;;;;;;5086932;27;20148;-84
2023/08/05 09:13:06;;;;;;;3.70;1.80;;;20.80;99.90;;;;;;5113741;27;20034;-83
2023/08/05 09:15:33;;;;;;;3.10;1.80;;;20.80;99.90;;;;;;5121795;27;20047;-83
2023/08/05 09:18:00;;;;;;;6.63;2.10;;;20.60;99.90;;;;;;5088228;27;20066;-83
2023/08/05 09:20:26;;;;;;;2.25;1.58;;;20.90;99.90;;;;;;5105393;27;20075;-83
2023/08/05 09:23:00;;;;;;;3.92;1.98;;;21.00;99.90;;;;;;5106272;27;20031;-83
2023/08/05 09:25:29;;;;;;;4.05;1.95;;;21.30;99.90;;;;;;5085578;27;20059;-83
2023/08/05 09:27:56;;;;;;;2.80;1.60;;;21.20;99.90;;;;;;5089078;28;20047;-83
2023/08/05 09:30:23;;;;;;;3.40;1.70;;;21.00;99.90;;;;;;5091954;27;20050;-83
2023/08/05 09:32:49;;;;;;;2.25;1.50;;;21.20;99.90;;;;;;5081083;27;20138;-83
2023/08/05 09:35:16;;;;;;;2.85;1.70;;;21.30;99.90;;;;;;5092342;27;20031;-83
2023/08/05 09:37:52;;;;;;;3.25;1.70;;;21.10;99.90;;;;;;5103956;27;20041;-83
2023/08/05 09:40:19;;;;;;;3.25;1.65;;;21.30;99.90;;;;;;5090552;27;20048;-83
2023/08/05 09:42:50;;;;;;;3.47;1.60;;;21.20;99.90;;;;;;5084672;27;20035;-83
2023/08/05 09:45:20;;;;;;;1.88;1.48;;;21.30;99.90;;;;;;5108087;27;20063;-83
2023/08/05 09:47:47;;;;;;;2.78;1.65;;;21.00;99.90;;;;;;5090444;27;20035;-83
2023/08/05 09:50:15;;;;;;;2.80;1.67;;;20.90;99.90;;;;;;5095219;27;20143;-83
2023/08/05 09:52:44;;;;;;;1.60;1.27;;;21.40;99.90;;;;;;5092004;27;20040;-83
2023/08/05 09:55:15;;;;;;;2.10;1.35;;;21.60;99.90;;;;;;5108052;27;20453;-83
2023/08/05 09:57:42;;;;;;;2.42;1.73;;;21.60;99.90;;;;;;5098832;27;20043;-84
2023/08/05 10:00:11;;;;;;;1.63;1.33;;;22.00;99.90;;;;;;5102394;27;20028;-83
2023/08/05 10:02:39;;;;;;;2.28;1.45;;;22.10;99.90;;;;;;5093999;27;20055;-83
2023/08/05 10:05:05;;;;;;;2.50;1.40;;;21.70;99.90;;;;;;5131116;27;20504;-83
2023/08/05 10:07:31;;;;;;;2.38;1.55;;;22.10;99.90;;;;;;5109549;27;20125;-83
2023/08/05 10:09:58;;;;;;;1.55;1.40;;;22.00;99.90;;;;;;5094374;27;20113;-83
2023/08/05 10:12:40;;;;;;;1.63;1.48;;;21.80;99.90;;;;;;5099500;27;20043;-83
2023/08/05 10:15:08;;;;;;;2.70;1.50;;;22.10;99.90;;;;;;5099852;27;20043;-84
2023/08/05 10:17:39;;;;;;;2.25;1.30;;;22.30;99.90;;;;;;5083109;27;20120;-83
2023/08/05 10:20:06;;;;;;;2.65;1.48;;;22.20;99.90;;;;;;5090781;27;20059;-84
2023/08/05 10:22:38;;;;;;;3.55;1.60;;;21.70;99.90;;;;;;5091447;27;20172;-84
2023/08/05 10:25:04;;;;;;;2.25;1.42;;;22.30;99.90;;;;;;5088368;27;20039;-83
2023/08/05 10:27:40;;;;;;;3.78;1.63;;;22.30;99.90;;;;;;5126319;27;20034;-83
2023/08/05 10:30:08;;;;;;;3.28;1.70;;;22.90;99.90;;;;;;5107739;27;20120;-83
2023/08/05 10:32:35;;;;;;;2.35;1.80;;;22.80;99.90;;;;;;5090337;27;20083;-83
2023/08/05 10:35:39;;;;;;;2.10;1.50;;;22.30;99.90;;;;;;5109220;27;20046;-83
2023/08/05 10:38:19;;;;;;;3.90;1.85;;;22.00;99.90;;;;;;5107115;27;20544;-83
2023/08/05 10:41:03;;;;;;;3.08;1.60;;;21.80;99.90;;;;;;5128916;27;20031;-84
2023/08/05 10:43:30;;;;;;;2.00;1.60;;;21.60;99.90;;;;;;5132698;27;20372;-83
2023/08/05 10:45:56;;;;;;;3.50;1.65;;;21.50;99.90;;;;;;5121128;27;20502;-83
2023/08/05 10:48:32;;;;;;;4.18;1.60;;;21.80;99.90;;;;;;5082244;27;20052;-83
2023/08/05 10:51:20;;;;;;;2.42;1.45;;;22.00;99.90;;;;;;5109425;27;20044;-83
2023/08/05 10:53:55;;;;;;;2.17;1.58;;;22.20;99.90;;;;;;5104381;27;20042;-84
2023/08/05 10:56:29;;;;;;;2.85;1.70;;;22.70;99.90;;;;;;5095321;27;20080;-83
2023/08/05 10:58:55;;;;;;;3.15;1.63;;;23.20;99.90;;;;;;5108057;27;20517;-83
2023/08/05 11:01:20;;;;;;;2.80;1.80;;;23.00;99.90;;;;;;5093093;27;20221;-83
2023/08/05 11:03:48;;;;;;;4.00;1.63;;;22.70;99.90;;;;;;5135149;27;20054;-83
2023/08/05 11:06:15;;;;;;;2.67;1.65;;;22.90;99.90;;;;;;5132148;27;20035;-84
2023/08/05 11:08:42;;;;;;;2.40;1.60;;;22.70;99.90;;;;;;5101369;27;20050;-84
2023/08/05 11:11:13;;;;;;;2.13;1.40;;;23.10;99.90;;;;;;5092791;27;20070;-83
2023/08/05 11:13:44;;;;;;;2.75;1.70;;;23.00;99.90;;;;;;5112454;27;20543;-84
2023/08/05 11:16:12;;;;;;;4.20;1.90;;;23.00;99.90;;;;;;5111830;27;20076;-84
2023/08/05 11:18:46;;;;;;;3.30;1.77;;;23.00;99.90;;;;;;5116178;27;20099;-84
2023/08/05 11:21:17;;;;;;;2.17;1.60;;;22.60;99.90;;;;;;5106813;27;20027;-84
2023/08/05 11:23:45;;;;;;;3.20;1.75;;;23.10;99.90;;;;;;5095870;27;20043;-84
2023/08/05 11:26:12;;;;;;;1.70;1.42;;;23.30;99.90;;;;;;5088240;27;20447;-84
2023/08/05 11:28:47;;;;;;;2.33;1.63;;;23.10;99.90;;;;;;5116085;27;20055;-84
2023/08/05 11:31:25;;;;;;;;;;;23.40;99.90;;;;;;5101208;27;20556;-84
2023/08/05 11:33:54;;;;;;;2.78;1.83;;;23.50;99.90;;;;;;5098067;27;20332;-84
2023/08/05 11:36:25;;;;;;;4.85;1.98;;;23.20;99.90;;;;;;5113258;27;20031;-84
2023/08/05 11:38:51;;;;;;;2.15;1.60;;;23.70;99.90;;;;;;5085288;27;20035;-84
2023/08/05 11:41:17;;;;;;;2.15;1.65;;;23.40;99.90;;;;;;5094036;27;20374;-84
2023/08/05 11:43:45;;;;;;;2.92;1.85;;;22.90;99.90;;;;;;5082444;27;20192;-84
2023/08/05 11:46:29;;;;;;;2.28;1.95;;;22.90;99.90;;;;;;5112598;27;20181;-84
2023/08/05 11:49:12;;;;;;;3.80;2.00;;;22.70;99.90;;;;;;5082143;27;20035;-84
2023/08/05 11:51:52;;;;;;;2.22;2.00;;;22.70;99.90;;;;;;5100107;27;20480;-84
2023/08/05 11:54:47;;;;;;;5.40;2.50;;;22.30;99.90;;;;;;5123751;27;20414;-84
2023/08/05 11:57:19;;;;;;;2.97;2.10;;;22.40;99.90;;;;;;5083103;27;20568;-84
2023/08/05 11:59:47;;;;;;;2.58;2.10;;;22.00;99.90;;;;;;5092915;27;20061;-84
2023/08/05 12:02:13;;;;;;;4.15;2.00;;;22.10;99.90;;;;;;5099263;27;20084;-83
2023/08/05 12:04:49;;;;;;;3.00;2.20;;;22.00;99.90;;;;;;5105656;27;20031;-84
2023/08/05 12:07:20;;;;;;;3.10;1.90;;;22.20;99.90;;;;;;5082114;27;20160;-84
2023/08/05 12:10:12;;;;;;;2.90;1.60;;;22.30;99.90;;;;;;5098687;27;20047;-84
2023/08/05 12:12:43;;;;;;;3.47;1.80;;;22.10;99.90;;;;;;5116382;27;20427;-84
2023/08/05 12:15:20;;;;;;;3.00;1.70;;;22.40;99.90;;;;;;5101974;27;20031;-84
2023/08/05 12:17:51;;;;;;;3.78;2.25;;;22.50;99.90;;;;;;5080525;27;20480;-84
2023/08/05 12:20:31;;;;;;;4.35;2.65;;;22.30;99.90;;;;;;5088803;27;20058;-84
2023/08/05 12:23:00;;;;;;;5.32;3.28;;;22.20;99.90;;;;;;5119906;27;20542;-85
2023/08/05 12:25:31;;;;;;;3.10;2.80;;;22.00;99.90;;;;;;5088904;27;20042;-84
2023/08/05 12:27:58;;;;;;;5.90;3.15;;;21.50;99.90;;;;;;5097090;27;20046;-84
2023/08/05 12:30:24;;;;;;;4.30;3.05;;;21.50;99.90;;;;;;5117769;27;20382;-84
2023/08/05 12:32:56;;;;;;;6.15;3.47;;;21.30;99.90;;;;;;5090083;27;20237;-84
2023/08/05 12:35:22;;;;;;;4.30;3.63;;;21.20;99.90;;;;;;5105333;27;20189;-83
2023/08/05 12:37:48;;;;;;;6.20;4.65;;;20.70;99.90;;;;;;5091069;27;20049;-83
2023/08/05 12:40:14;;;;;;;5.22;4.35;;;20.70;99.90;;;;;;5080700;27;20044;-83
2023/08/05 12:42:40;;;;;;;6.25;4.20;;;20.70;99.90;;;;;;5085517;27;20065;-84
2023/08/05 12:45:07;;;;;;;6.32;3.92;;;20.60;99.90;;;;;;5107717;27;20712;-84
2023/08/05 12:47:33;;;;;;;4.90;4.20;;;20.70;99.90;;;;;;5082257;27;20132;-84
2023/08/05 12:50:01;;;;;;;7.70;4.38;;;20.30;99.90;;;;;;5085541;27;20127;-84
2023/08/05 12:52:27;;;;;;;6.78;5.07;;;20.40;99.90;;;;;;5116065;27;20055;-84